createdAt,value
2018-05-15T00:00:14.955Z,18.19
2018-05-15T00:01:14.934Z,18.16
2018-05-15T00:02:14.910Z,18.20
2018-05-15T00:03:14.883Z,18.13
2018-05-15T00:04:14.860Z,18.11
2018-05-15T00:05:14.838Z,18.07
2018-05-15T00:06:14.813Z,18.08
2018-05-15T00:07:14.795Z,18.08
2018-05-15T00:08:14.766Z,17.97
2018-05-15T00:09:14.743Z,17.95
2018-05-15T00:10:14.720Z,18.01
2018-05-15T00:11:14.697Z,17.95
2018-05-15T00:12:14.673Z,18.00
2018-05-15T00:13:14.649Z,18.00
2018-05-15T00:14:14.623Z,17.97
2018-05-15T00:15:14.600Z,17.94
2018-05-15T00:16:14.575Z,17.94
2018-05-15T00:17:14.553Z,17.90
2018-05-15T00:18:14.535Z,18.01
2018-05-15T00:19:14.504Z,17.94
2018-05-15T00:20:14.482Z,17.85
2018-05-15T00:21:14.460Z,17.86
2018-05-15T00:22:14.433Z,17.80
2018-05-15T00:23:14.412Z,17.85
2018-05-15T00:24:14.387Z,17.79
2018-05-15T00:25:14.364Z,17.78
2018-05-15T00:26:14.338Z,17.76
2018-05-15T00:27:14.316Z,17.76
2018-05-15T00:28:14.291Z,17.83
2018-05-15T00:29:14.268Z,17.78
2018-05-15T00:30:14.247Z,17.72
2018-05-15T00:31:14.221Z,17.79
2018-05-15T00:32:14.197Z,17.67
2018-05-15T00:33:14.174Z,17.63
2018-05-15T00:34:14.153Z,17.54
2018-05-15T00:35:14.125Z,17.70
2018-05-15T00:36:14.101Z,17.68
2018-05-15T00:37:14.082Z,17.67
2018-05-15T00:38:14.056Z,17.64
2018-05-15T00:39:14.031Z,17.64
2018-05-15T00:40:14.008Z,17.63
2018-05-15T00:41:13.985Z,17.70
2018-05-15T00:42:13.959Z,17.51
2018-05-15T00:43:13.937Z,17.49
2018-05-15T00:44:13.996Z,17.49
2018-05-15T00:45:13.887Z,17.38
2018-05-15T00:46:13.864Z,17.41
2018-05-15T00:47:13.847Z,17.36
2018-05-15T00:48:13.816Z,17.34
2018-05-15T00:49:13.793Z,17.29
2018-05-15T00:50:13.776Z,17.24
2018-05-15T00:51:13.751Z,17.31
2018-05-15T00:52:13.724Z,17.31
2018-05-15T00:53:13.702Z,17.20
2018-05-15T00:54:13.671Z,17.30
2018-05-15T00:55:13.651Z,17.19
2018-05-15T00:56:13.632Z,17.14
2018-05-15T00:57:13.609Z,17.15
2018-05-15T00:58:13.579Z,17.14
2018-05-15T00:59:13.554Z,17.06
2018-05-15T01:00:13.534Z,17.12
2018-05-15T01:01:13.512Z,17.14
2018-05-15T01:02:13.484Z,17.09
2018-05-15T01:03:13.463Z,17.01
2018-05-15T01:04:13.439Z,17.05
2018-05-15T01:05:13.417Z,17.04
2018-05-15T01:06:13.391Z,16.97
2018-05-15T01:07:13.360Z,17.06
2018-05-15T01:08:13.339Z,17.05
2018-05-15T01:09:13.318Z,16.99
2018-05-15T01:10:13.294Z,17.02
2018-05-15T01:11:13.267Z,17.02
2018-05-15T01:12:13.246Z,17.14
2018-05-15T01:13:13.216Z,17.09
2018-05-15T01:14:13.197Z,17.09
2018-05-15T01:15:13.171Z,17.09
2018-05-15T01:16:13.150Z,17.01
2018-05-15T01:17:13.123Z,17.05
2018-05-15T01:18:13.105Z,17.11
2018-05-15T01:19:13.080Z,17.08
2018-05-15T01:20:13.056Z,17.11
2018-05-15T01:21:13.028Z,17.14
2018-05-15T01:22:13.009Z,17.14
2018-05-15T01:23:12.977Z,17.19
2018-05-15T01:24:12.966Z,17.08
2018-05-15T01:25:12.932Z,17.08
2018-05-15T01:26:12.917Z,17.11
2018-05-15T01:27:12.892Z,17.09
2018-05-15T01:28:12.857Z,17.08
2018-05-15T01:29:12.836Z,17.02
2018-05-15T01:30:12.809Z,17.01
2018-05-15T01:31:12.790Z,16.94
2018-05-15T01:32:12.762Z,16.89
2018-05-15T01:33:12.738Z,16.81
2018-05-15T01:34:12.725Z,16.83
2018-05-15T01:35:12.699Z,16.78
2018-05-15T01:36:12.667Z,16.87
2018-05-15T01:37:12.642Z,16.84
2018-05-15T01:38:12.626Z,16.84
2018-05-15T01:39:12.602Z,16.83
2018-05-15T01:40:12.570Z,16.86
2018-05-15T01:41:12.549Z,16.87
2018-05-15T01:42:12.527Z,16.86
2018-05-15T01:43:12.502Z,16.83
2018-05-15T01:44:12.474Z,16.84
2018-05-15T01:45:12.454Z,16.71
2018-05-15T01:46:12.429Z,16.69
2018-05-15T01:47:12.405Z,16.69
2018-05-15T01:48:12.383Z,16.76
2018-05-15T01:49:12.356Z,16.74
2018-05-15T01:50:12.334Z,16.74
2018-05-15T01:51:12.314Z,16.72
2018-05-15T01:52:12.279Z,16.71
2018-05-15T01:53:12.263Z,16.64
2018-05-15T01:54:12.231Z,16.60
2018-05-15T01:55:12.209Z,16.66
2018-05-15T01:56:12.191Z,16.57
2018-05-15T01:57:12.160Z,16.53
2018-05-15T01:58:12.143Z,16.49
2018-05-15T01:59:12.114Z,16.38
2018-05-15T02:00:12.091Z,16.42
2018-05-15T02:01:12.064Z,16.38
2018-05-15T02:02:12.045Z,16.28
2018-05-15T02:03:12.020Z,16.31
2018-05-15T02:04:11.998Z,16.35
2018-05-15T02:05:11.970Z,16.33
2018-05-15T02:06:11.944Z,16.33
2018-05-15T02:07:11.917Z,16.26
2018-05-15T02:08:11.901Z,16.16
2018-05-15T02:09:11.868Z,16.23
2018-05-15T02:10:11.853Z,16.17
2018-05-15T02:11:11.829Z,16.15
2018-05-15T02:12:11.794Z,16.24
2018-05-15T02:13:11.780Z,16.21
2018-05-15T02:14:11.747Z,16.20
2018-05-15T02:15:11.727Z,16.31
2018-05-15T02:16:11.744Z,16.28
2018-05-15T02:17:11.681Z,16.24
2018-05-15T02:18:11.657Z,16.24
2018-05-15T02:19:11.633Z,16.29
2018-05-15T02:20:11.658Z,16.16
2018-05-15T02:21:11.588Z,16.13
2018-05-15T02:22:11.553Z,16.16
2018-05-15T02:23:11.531Z,16.05
2018-05-15T02:24:11.510Z,15.98
2018-05-15T02:25:11.485Z,15.92
2018-05-15T02:26:11.461Z,15.92
2018-05-15T02:27:11.432Z,15.91
2018-05-15T02:28:11.414Z,15.92
2018-05-15T02:29:11.383Z,15.82
2018-05-15T02:30:11.366Z,15.76
2018-05-15T02:31:11.343Z,15.72
2018-05-15T02:32:11.314Z,15.65
2018-05-15T02:33:11.295Z,15.59
2018-05-15T02:34:11.267Z,15.59
2018-05-15T02:35:11.245Z,15.64
2018-05-15T02:36:11.214Z,15.57
2018-05-15T02:37:11.194Z,15.61
2018-05-15T02:38:11.165Z,15.64
2018-05-15T02:39:11.140Z,15.54
2018-05-15T02:40:11.116Z,15.49
2018-05-15T02:41:11.092Z,15.55
2018-05-15T02:42:11.077Z,15.49
2018-05-15T02:43:11.041Z,15.44
2018-05-15T02:44:11.019Z,15.43
2018-05-15T02:45:10.997Z,15.47
2018-05-15T02:46:10.976Z,15.58
2018-05-15T02:47:10.944Z,15.51
2018-05-15T02:48:10.929Z,15.59
2018-05-15T02:49:10.893Z,15.52
2018-05-15T02:50:10.879Z,15.65
2018-05-15T02:51:10.855Z,15.59
2018-05-15T02:52:10.822Z,15.65
2018-05-15T02:53:10.806Z,15.54
2018-05-15T02:54:10.777Z,15.59
2018-05-15T02:55:10.757Z,15.54
2018-05-15T02:56:10.724Z,15.52
2018-05-15T02:57:10.700Z,15.47
2018-05-15T02:58:10.674Z,15.44
2018-05-15T02:59:10.653Z,15.44
2018-05-15T03:00:10.633Z,15.52
2018-05-15T03:01:10.600Z,15.43
2018-05-15T03:02:10.589Z,15.43
2018-05-15T03:03:10.560Z,15.43
2018-05-15T03:04:10.527Z,15.44
2018-05-15T03:05:10.555Z,15.42
2018-05-15T03:06:10.484Z,15.49
2018-05-15T03:07:10.454Z,15.36
2018-05-15T03:08:10.438Z,15.35
2018-05-15T03:09:10.410Z,15.29
2018-05-15T03:10:10.385Z,15.27
2018-05-15T03:11:10.358Z,15.24
2018-05-15T03:12:10.345Z,15.24
2018-05-15T03:13:10.307Z,15.24
2018-05-15T03:14:10.290Z,15.15
2018-05-15T03:15:10.270Z,15.11
2018-05-15T03:16:10.232Z,15.17
2018-05-15T03:17:10.217Z,15.15
2018-05-15T03:18:10.183Z,15.19
2018-05-15T03:19:10.167Z,15.22
2018-05-15T03:20:10.143Z,15.17
2018-05-15T03:21:10.117Z,15.21
2018-05-15T03:22:10.093Z,15.21
2018-05-15T03:23:10.068Z,15.22
2018-05-15T03:24:10.042Z,15.25
2018-05-15T03:25:10.021Z,15.25
2018-05-15T03:26:09.988Z,15.22
2018-05-15T03:27:09.973Z,15.22
2018-05-15T03:28:09.942Z,15.19
2018-05-15T03:29:09.922Z,15.22
2018-05-15T03:30:09.887Z,15.25
2018-05-15T03:31:09.870Z,15.18
2018-05-15T03:32:09.841Z,15.24
2018-05-15T03:33:09.818Z,15.22
2018-05-15T03:34:09.792Z,15.22
2018-05-15T03:35:09.766Z,15.19
2018-05-15T03:36:09.747Z,15.19
2018-05-15T03:37:09.725Z,15.15
2018-05-15T03:38:09.697Z,15.18
2018-05-15T03:39:09.668Z,15.10
2018-05-15T03:40:09.644Z,15.11
2018-05-15T03:41:09.623Z,15.09
2018-05-15T03:42:09.595Z,15.06
2018-05-15T03:43:09.570Z,15.03
2018-05-15T03:44:09.553Z,15.00
2018-05-15T03:45:09.525Z,14.96
2018-05-15T03:46:09.496Z,15.02
2018-05-15T03:47:09.477Z,14.97
2018-05-15T03:48:09.450Z,14.94
2018-05-15T03:49:09.432Z,14.94
2018-05-15T03:50:09.394Z,15.03
2018-05-15T03:51:09.378Z,14.97
2018-05-15T03:52:09.349Z,14.94
2018-05-15T03:53:09.322Z,14.92
2018-05-15T03:54:09.299Z,14.82
2018-05-15T03:55:09.275Z,14.88
2018-05-15T03:56:09.249Z,14.89
2018-05-15T03:57:09.284Z,14.86
2018-05-15T03:58:09.198Z,14.82
2018-05-15T03:59:09.184Z,14.73
2018-05-15T04:00:09.147Z,14.69
2018-05-15T04:01:09.159Z,14.66
2018-05-15T04:02:09.104Z,14.68
2018-05-15T04:03:09.074Z,14.60
2018-05-15T04:04:09.061Z,14.68
2018-05-15T04:05:09.027Z,14.65
2018-05-15T04:06:09.003Z,14.70
2018-05-15T04:07:08.992Z,14.63
2018-05-15T04:08:08.955Z,14.68
2018-05-15T04:09:08.922Z,14.70
2018-05-15T04:10:08.908Z,14.60
2018-05-15T04:11:08.887Z,14.70
2018-05-15T04:12:08.855Z,14.58
2018-05-15T04:13:08.832Z,14.63
2018-05-15T04:14:08.803Z,14.63
2018-05-15T04:15:08.775Z,14.62
2018-05-15T04:16:08.762Z,14.66
2018-05-15T04:17:09.451Z,14.65
2018-05-15T04:18:08.710Z,14.59
2018-05-15T04:19:08.685Z,14.45
2018-05-15T04:20:08.650Z,14.43
2018-05-15T04:21:08.636Z,14.40
2018-05-15T04:22:08.603Z,14.44
2018-05-15T04:23:08.578Z,14.45
2018-05-15T04:24:08.554Z,14.43
2018-05-15T04:25:08.529Z,14.45
2018-05-15T04:26:08.505Z,14.50
2018-05-15T04:27:08.489Z,14.47
2018-05-15T04:28:08.462Z,14.47
2018-05-15T04:29:08.428Z,14.45
2018-05-15T04:30:08.413Z,14.48
2018-05-15T04:31:08.385Z,14.40
2018-05-15T04:32:08.356Z,14.33
2018-05-15T04:33:08.342Z,14.40
2018-05-15T04:34:08.307Z,14.40
2018-05-15T04:35:08.335Z,14.43
2018-05-15T04:36:08.254Z,14.48
2018-05-15T04:37:08.246Z,14.50
2018-05-15T04:38:08.206Z,14.55
2018-05-15T04:39:08.196Z,14.50
2018-05-15T04:40:08.162Z,14.50
2018-05-15T04:41:08.138Z,14.48
2018-05-15T04:42:08.111Z,14.50
2018-05-15T04:43:08.088Z,14.44
2018-05-15T04:44:08.064Z,14.53
2018-05-15T04:45:08.036Z,14.53
2018-05-15T04:46:08.007Z,14.53
2018-05-15T04:47:07.981Z,14.65
2018-05-15T04:48:07.970Z,14.59
2018-05-15T04:49:07.936Z,14.66
2018-05-15T04:50:07.908Z,14.66
2018-05-15T04:51:07.882Z,14.59
2018-05-15T04:52:07.860Z,14.68
2018-05-15T04:53:07.837Z,14.69
2018-05-15T04:54:07.808Z,14.73
2018-05-15T04:55:07.779Z,14.68
2018-05-15T04:56:07.764Z,14.79
2018-05-15T04:57:07.737Z,14.81
2018-05-15T04:58:07.717Z,14.88
2018-05-15T04:59:07.691Z,14.81
2018-05-15T05:00:07.668Z,14.85
2018-05-15T05:01:07.632Z,14.89
2018-05-15T05:02:07.636Z,14.97
2018-05-15T05:03:07.591Z,14.91
2018-05-15T05:04:07.555Z,14.92
2018-05-15T05:05:07.533Z,14.96
2018-05-15T05:06:07.518Z,15.02
2018-05-15T05:07:07.485Z,15.02
2018-05-15T05:08:07.467Z,15.04
2018-05-15T05:09:07.439Z,15.14
2018-05-15T05:10:07.411Z,15.14
2018-05-15T05:11:07.385Z,15.25
2018-05-15T05:12:07.362Z,15.21
2018-05-15T05:13:07.341Z,15.33
2018-05-15T05:14:07.315Z,15.25
2018-05-15T05:15:07.287Z,15.25
2018-05-15T05:16:07.272Z,15.28
2018-05-15T05:17:07.233Z,15.25
2018-05-15T05:18:07.217Z,15.24
2018-05-15T05:19:07.182Z,15.27
2018-05-15T05:20:07.171Z,15.31
2018-05-15T05:21:07.163Z,15.29
2018-05-15T05:22:07.185Z,15.52
2018-05-15T05:23:07.093Z,15.46
2018-05-15T05:24:07.058Z,15.52
2018-05-15T05:25:07.043Z,15.52
2018-05-15T05:26:07.012Z,15.59
2018-05-15T05:27:06.993Z,15.54
2018-05-15T05:28:06.965Z,15.49
2018-05-15T05:29:06.938Z,15.51
2018-05-15T05:30:06.919Z,15.52
2018-05-15T05:31:06.890Z,15.65
2018-05-15T05:32:06.863Z,15.59
2018-05-15T05:33:06.844Z,15.61
2018-05-15T05:34:06.817Z,15.73
2018-05-15T05:35:06.793Z,15.83
2018-05-15T05:36:06.763Z,15.76
2018-05-15T05:37:06.745Z,15.75
2018-05-15T05:38:06.717Z,15.86
2018-05-15T05:39:06.690Z,15.91
2018-05-15T05:40:06.721Z,15.98
2018-05-15T05:41:06.642Z,15.90
2018-05-15T05:42:06.621Z,15.82
2018-05-15T05:43:06.594Z,15.91
2018-05-15T05:44:06.566Z,15.95
2018-05-15T05:45:06.540Z,15.97
2018-05-15T05:46:06.524Z,15.97
2018-05-15T05:47:06.495Z,16.08
2018-05-15T05:48:06.471Z,16.02
2018-05-15T05:49:06.450Z,16.05
2018-05-15T05:50:06.417Z,16.02
2018-05-15T05:51:06.399Z,16.16
2018-05-15T05:52:06.485Z,16.20
2018-05-15T05:53:06.356Z,16.26
2018-05-15T05:54:06.324Z,16.26
2018-05-15T05:55:06.301Z,16.28
2018-05-15T05:56:06.272Z,16.21
2018-05-15T05:57:06.250Z,16.29
2018-05-15T05:58:06.226Z,16.24
2018-05-15T05:59:06.204Z,16.28
2018-05-15T06:00:06.169Z,16.31
2018-05-15T06:01:06.170Z,16.36
2018-05-15T06:02:06.131Z,16.38
2018-05-15T06:03:06.102Z,16.42
2018-05-15T06:04:06.074Z,16.56
2018-05-15T06:05:06.054Z,16.47
2018-05-15T06:06:06.025Z,16.53
2018-05-15T06:07:06.020Z,16.56
2018-05-15T06:08:05.981Z,16.60
2018-05-15T06:09:05.946Z,16.51
2018-05-15T06:10:05.933Z,16.61
2018-05-15T06:11:05.902Z,16.56
2018-05-15T06:12:05.879Z,16.58
2018-05-15T06:13:05.854Z,16.61
2018-05-15T06:14:05.840Z,16.74
2018-05-15T06:15:05.806Z,16.76
2018-05-15T06:16:05.779Z,16.74
2018-05-15T06:17:05.758Z,16.69
2018-05-15T06:18:05.735Z,16.74
2018-05-15T06:19:05.711Z,16.83
2018-05-15T06:20:05.779Z,16.86
2018-05-15T06:21:05.708Z,16.87
2018-05-15T06:22:05.630Z,16.79
2018-05-15T06:23:05.614Z,16.90
2018-05-15T06:24:05.579Z,16.89
2018-05-15T06:25:05.558Z,16.87
2018-05-15T06:26:05.547Z,16.91
2018-05-15T06:27:05.513Z,16.89
2018-05-15T06:28:05.483Z,16.97
2018-05-15T06:29:05.460Z,16.96
2018-05-15T06:30:05.441Z,17.05
2018-05-15T06:31:05.418Z,17.04
2018-05-15T06:32:05.384Z,16.96
2018-05-15T06:33:05.373Z,17.02
2018-05-15T06:34:05.377Z,17.04
2018-05-15T06:35:05.315Z,17.14
2018-05-15T06:36:05.294Z,17.11
2018-05-15T06:37:05.339Z,17.11
2018-05-15T06:38:05.245Z,17.16
2018-05-15T06:39:05.219Z,17.22
2018-05-15T06:40:06.292Z,17.31
2018-05-15T06:41:05.170Z,17.30
2018-05-15T06:42:05.141Z,17.29
2018-05-15T06:43:05.117Z,17.27
2018-05-15T06:44:05.096Z,17.33
2018-05-15T06:45:05.069Z,17.34
2018-05-15T06:46:05.056Z,17.38
2018-05-15T06:47:05.018Z,17.36
2018-05-15T06:48:05.000Z,17.45
2018-05-15T06:49:04.967Z,17.54
2018-05-15T06:50:04.954Z,17.57
2018-05-15T06:51:04.929Z,17.64
2018-05-15T06:52:04.896Z,17.65
2018-05-15T06:53:04.893Z,17.67
2018-05-15T06:54:04.846Z,17.63
2018-05-15T06:55:04.824Z,17.71
2018-05-15T06:56:04.803Z,17.78
2018-05-15T06:57:04.777Z,17.74
2018-05-15T06:58:04.756Z,17.72
2018-05-15T06:59:04.730Z,17.78
2018-05-15T07:00:04.780Z,17.72
2018-05-15T07:01:04.681Z,17.82
2018-05-15T07:02:04.654Z,17.83
2018-05-15T07:03:04.631Z,17.85
2018-05-15T07:04:04.609Z,17.86
2018-05-15T07:05:04.587Z,17.87
2018-05-15T07:06:04.554Z,17.97
2018-05-15T07:07:04.529Z,17.97
2018-05-15T07:08:04.514Z,17.95
2018-05-15T07:09:04.482Z,17.95
2018-05-15T07:10:04.469Z,17.98
2018-05-15T07:11:04.438Z,18.05
2018-05-15T07:12:04.418Z,18.05
2018-05-15T07:13:04.384Z,18.04
2018-05-15T07:14:04.390Z,18.13
2018-05-15T07:15:04.341Z,18.16
2018-05-15T07:16:04.316Z,18.19
2018-05-15T07:17:04.293Z,18.20
2018-05-15T07:18:04.270Z,18.19
2018-05-15T07:19:04.244Z,18.26
2018-05-15T07:20:04.222Z,18.28
2018-05-15T07:21:04.190Z,18.28
2018-05-15T07:22:04.171Z,18.26
2018-05-15T07:23:04.151Z,18.26
2018-05-15T07:24:04.121Z,18.20
2018-05-15T07:25:04.102Z,18.25
2018-05-15T07:26:04.074Z,18.28
2018-05-15T07:27:04.054Z,18.37
2018-05-15T07:28:04.023Z,18.29
2018-05-15T07:29:04.004Z,18.38
2018-05-15T07:30:03.983Z,18.44
2018-05-15T07:31:03.958Z,18.40
2018-05-15T07:32:03.928Z,18.50
2018-05-15T07:33:03.972Z,18.49
2018-05-15T07:34:03.885Z,18.47
2018-05-15T07:35:03.856Z,18.52
2018-05-15T07:36:03.828Z,18.50
2018-05-15T07:37:03.817Z,18.56
2018-05-15T07:38:03.787Z,18.52
2018-05-15T07:39:03.756Z,18.59
2018-05-15T07:40:03.741Z,18.59
2018-05-15T07:41:03.710Z,18.75
2018-05-15T07:42:03.700Z,18.63
2018-05-15T07:43:03.666Z,18.70
2018-05-15T07:44:03.638Z,18.81
2018-05-15T07:45:03.612Z,18.77
2018-05-15T07:46:03.599Z,18.80
2018-05-15T07:47:03.569Z,18.84
2018-05-15T07:48:03.544Z,18.89
2018-05-15T07:49:03.523Z,18.90
2018-05-15T07:50:03.497Z,18.88
2018-05-15T07:51:03.467Z,18.93
2018-05-15T07:52:03.450Z,18.89
2018-05-15T07:53:03.424Z,19.00
2018-05-15T07:54:03.408Z,18.96
2018-05-15T07:55:03.376Z,18.99
2018-05-15T07:56:03.353Z,18.99
2018-05-15T07:57:03.324Z,19.09
2018-05-15T07:58:03.305Z,19.09
2018-05-15T07:59:03.293Z,19.16
2018-05-15T08:00:03.259Z,19.18
2018-05-15T08:01:03.230Z,19.27
2018-05-15T08:02:03.245Z,19.31
2018-05-15T08:03:03.187Z,19.27
2018-05-15T08:04:03.157Z,19.34
2018-05-15T08:05:03.136Z,19.33
2018-05-15T08:06:03.113Z,19.37
2018-05-15T08:07:03.089Z,19.37
2018-05-15T08:08:03.066Z,19.29
2018-05-15T08:09:03.039Z,19.22
2018-05-15T08:10:03.013Z,19.34
2018-05-15T08:11:02.987Z,19.34
2018-05-15T08:12:02.967Z,19.33
2018-05-15T08:13:02.941Z,19.33
2018-05-15T08:14:02.925Z,19.40
2018-05-15T08:15:02.898Z,19.29
2018-05-15T08:16:02.871Z,19.41
2018-05-15T08:17:02.859Z,19.54
2018-05-15T08:18:02.824Z,19.40
2018-05-15T08:19:02.808Z,19.41
2018-05-15T08:20:02.776Z,19.44
2018-05-15T08:21:02.757Z,19.54
2018-05-15T08:22:02.726Z,19.47
2018-05-15T08:23:02.708Z,19.49
2018-05-15T08:24:02.681Z,19.55
2018-05-15T08:25:02.663Z,19.56
2018-05-15T08:26:02.640Z,19.52
2018-05-15T08:27:02.622Z,19.62
2018-05-15T08:28:02.588Z,19.58
2018-05-15T08:29:02.567Z,19.69
2018-05-15T08:30:02.536Z,19.70
2018-05-15T08:31:02.513Z,19.69
2018-05-15T08:32:02.493Z,19.77
2018-05-15T08:33:02.473Z,19.74
2018-05-15T08:34:02.446Z,19.74
2018-05-15T08:35:02.419Z,19.74
2018-05-15T08:36:02.400Z,19.76
2018-05-15T08:37:02.368Z,19.82
2018-05-15T08:38:02.355Z,19.77
2018-05-15T08:39:02.332Z,19.76
2018-05-15T08:40:02.304Z,19.89
2018-05-15T08:41:02.278Z,19.85
2018-05-15T08:42:02.256Z,19.86
2018-05-15T08:43:02.230Z,19.94
2018-05-15T08:44:02.215Z,19.92
2018-05-15T08:45:02.187Z,19.92
2018-05-15T08:46:02.165Z,19.94
2018-05-15T08:47:02.130Z,19.92
2018-05-15T08:48:02.118Z,19.96
2018-05-15T08:49:02.085Z,20.03
2018-05-15T08:50:02.069Z,20.06
2018-05-15T08:51:02.047Z,20.11
2018-05-15T08:52:02.044Z,20.19
2018-05-15T08:53:01.991Z,20.24
2018-05-15T08:54:01.975Z,20.21
2018-05-15T08:55:01.948Z,20.16
2018-05-15T08:56:01.927Z,20.13
2018-05-15T08:57:01.895Z,20.18
2018-05-15T08:58:01.880Z,20.25
2018-05-15T08:59:01.849Z,20.21
2018-05-15T09:00:01.831Z,20.22
2018-05-15T09:01:01.808Z,20.26
2018-05-15T09:02:01.782Z,20.26
2018-05-15T09:03:01.756Z,20.28
2018-05-15T09:04:01.735Z,20.34
2018-05-15T09:05:01.714Z,20.32
2018-05-15T09:06:01.684Z,20.34
2018-05-15T09:07:01.661Z,20.44
2018-05-15T09:08:01.644Z,20.47
2018-05-15T09:09:01.619Z,20.50
2018-05-15T09:10:01.595Z,20.51
2018-05-15T09:11:01.577Z,20.52
2018-05-15T09:12:01.541Z,20.56
2018-05-15T09:13:01.523Z,20.52
2018-05-15T09:14:01.500Z,20.60
2018-05-15T09:15:01.472Z,20.60
2018-05-15T09:16:01.456Z,20.60
2018-05-15T09:17:01.422Z,20.48
2018-05-15T09:18:01.402Z,20.56
2018-05-15T09:19:01.383Z,20.58
2018-05-15T09:20:01.359Z,20.65
2018-05-15T09:21:01.328Z,20.72
2018-05-15T09:22:01.315Z,20.69
2018-05-15T09:23:01.285Z,20.66
2018-05-15T09:24:01.267Z,20.67
2018-05-15T09:25:01.244Z,20.69
2018-05-15T09:26:01.210Z,20.67
2018-05-15T09:27:01.190Z,20.75
2018-05-15T09:28:01.170Z,20.66
2018-05-15T09:29:01.141Z,20.69
2018-05-15T09:30:01.126Z,20.65
2018-05-15T09:31:01.097Z,20.65
2018-05-15T09:32:01.076Z,20.70
2018-05-15T09:33:01.051Z,20.70
2018-05-15T09:34:01.024Z,20.77
2018-05-15T09:35:01.006Z,20.78
2018-05-15T09:36:00.984Z,20.77
2018-05-15T09:37:00.957Z,20.85
2018-05-15T09:38:00.936Z,20.87
2018-05-15T09:39:00.913Z,20.81
2018-05-15T09:40:00.888Z,20.82
2018-05-15T09:41:00.866Z,20.77
2018-05-15T09:42:00.841Z,20.80
2018-05-15T09:43:00.843Z,20.99
2018-05-15T09:44:00.798Z,20.99
2018-05-15T09:45:00.770Z,21.00
2018-05-15T09:46:00.750Z,20.95
2018-05-15T09:47:00.851Z,20.92
2018-05-15T09:48:00.701Z,21.00
2018-05-15T09:49:00.679Z,21.00
2018-05-15T09:50:00.653Z,21.03
2018-05-15T09:51:00.634Z,21.06
2018-05-15T09:52:00.612Z,21.02
2018-05-15T09:53:00.581Z,21.21
2018-05-15T09:54:00.566Z,21.27
2018-05-15T09:55:00.543Z,21.27
2018-05-15T09:56:00.511Z,21.24
2018-05-15T09:57:00.490Z,21.29
2018-05-15T09:58:00.465Z,21.25
2018-05-15T09:59:00.441Z,21.27
2018-05-15T10:00:00.427Z,21.22
2018-05-15T10:01:00.393Z,21.33
2018-05-15T10:02:00.380Z,21.35
2018-05-15T10:03:00.359Z,21.33
2018-05-15T10:04:00.326Z,21.36
2018-05-15T10:05:00.311Z,21.40
2018-05-15T10:06:00.278Z,21.46
2018-05-15T10:07:00.263Z,21.46
2018-05-15T10:08:00.289Z,21.43
2018-05-15T10:09:00.217Z,21.40
2018-05-15T10:10:00.185Z,21.43
2018-05-15T10:11:00.168Z,21.50
2018-05-15T10:12:00.144Z,21.48
2018-05-15T10:13:00.123Z,21.50
2018-05-15T10:14:00.103Z,21.48
2018-05-15T10:15:00.086Z,21.46
2018-05-15T10:16:00.045Z,21.50
2018-05-15T10:17:00.034Z,21.48
2018-05-15T10:18:00.010Z,21.52
2018-05-15T10:18:59.981Z,21.46
2018-05-15T10:19:59.978Z,21.61
2018-05-15T10:20:59.936Z,21.67
2018-05-15T10:21:59.964Z,21.75
2018-05-15T10:22:59.891Z,21.77
2018-05-15T10:23:59.870Z,21.83
2018-05-15T10:24:59.838Z,21.82
2018-05-15T10:25:59.818Z,21.99
2018-05-15T10:26:59.795Z,21.99
2018-05-15T10:27:59.770Z,21.99
2018-05-15T10:28:59.748Z,22.04
2018-05-15T10:29:59.802Z,22.13
2018-05-15T10:30:59.706Z,22.20
2018-05-15T10:31:59.679Z,22.18
2018-05-15T10:32:59.658Z,22.29
2018-05-15T10:33:59.641Z,22.30
2018-05-15T10:34:59.618Z,22.29
2018-05-15T10:35:59.590Z,22.23
2018-05-15T10:36:59.569Z,22.17
2018-05-15T10:37:59.546Z,22.22
2018-05-15T10:38:59.526Z,22.28
2018-05-15T10:39:59.494Z,22.41
2018-05-15T10:40:59.479Z,22.35
2018-05-15T10:41:59.458Z,22.41
2018-05-15T10:42:59.432Z,22.48
2018-05-15T10:43:59.500Z,22.54
2018-05-15T10:44:59.385Z,22.43
2018-05-15T10:45:59.360Z,22.45
2018-05-15T10:46:59.343Z,22.62
2018-05-15T10:47:59.312Z,22.55
2018-05-15T10:48:59.301Z,22.63
2018-05-15T10:49:59.266Z,22.63
2018-05-15T10:50:59.241Z,22.75
2018-05-15T10:51:59.233Z,22.73
2018-05-15T10:52:59.199Z,22.75
2018-05-15T10:53:59.263Z,22.75
2018-05-15T10:54:59.187Z,22.75
2018-05-15T10:55:59.230Z,22.75
2018-05-15T10:56:59.114Z,22.84
2018-05-15T10:57:59.099Z,22.80
2018-05-15T10:58:59.076Z,22.72
2018-05-15T10:59:59.042Z,22.83
2018-05-15T11:00:59.039Z,22.83
2018-05-15T11:01:59.001Z,22.90
2018-05-15T11:02:58.982Z,22.94
2018-05-15T11:03:58.952Z,22.99
2018-05-15T11:04:58.927Z,23.06
2018-05-15T11:05:58.914Z,23.06
2018-05-15T11:06:58.886Z,23.12
2018-05-15T11:07:58.865Z,23.18
2018-05-15T11:08:58.845Z,23.24
2018-05-15T11:09:58.879Z,23.25
2018-05-15T11:10:58.802Z,23.28
2018-05-15T11:11:58.775Z,23.37
2018-05-15T11:12:58.752Z,23.27
2018-05-15T11:13:58.726Z,23.40
2018-05-15T11:14:58.710Z,23.37
2018-05-15T11:15:58.684Z,23.37
2018-05-15T11:16:58.666Z,23.55
2018-05-15T11:17:58.642Z,23.51
2018-05-15T11:18:58.618Z,23.59
2018-05-15T11:19:58.598Z,23.69
2018-05-15T11:20:58.572Z,23.66
2018-05-15T11:21:58.567Z,23.74
2018-05-15T11:22:58.529Z,23.80
2018-05-15T11:23:58.511Z,23.87
2018-05-15T11:24:58.484Z,23.83
2018-05-15T11:25:58.467Z,23.92
2018-05-15T11:26:58.438Z,23.95
2018-05-15T11:27:58.423Z,23.92
2018-05-15T11:28:58.402Z,24.06
2018-05-15T11:29:58.377Z,24.05
2018-05-15T11:30:58.355Z,24.06
2018-05-15T11:31:58.329Z,23.99
2018-05-15T11:32:58.307Z,24.06
2018-05-15T11:33:58.286Z,23.96
2018-05-15T11:34:58.266Z,24.03
2018-05-15T11:35:58.290Z,23.98
2018-05-15T11:36:58.223Z,23.95
2018-05-15T11:37:58.198Z,23.86
2018-05-15T11:38:58.528Z,23.91
2018-05-15T11:39:58.152Z,23.86
2018-05-15T11:40:58.137Z,23.80
2018-05-15T11:41:58.196Z,23.81
2018-05-15T11:42:58.096Z,23.95
2018-05-15T11:43:58.061Z,23.93
2018-05-15T11:44:58.048Z,23.95
2018-05-15T11:45:58.024Z,24.01
2018-05-15T11:46:58.004Z,24.05
2018-05-15T11:47:58.092Z,24.02
2018-05-15T11:48:58.635Z,24.01
2018-05-15T11:49:58.401Z,24.01
2018-05-15T11:50:58.747Z,24.02
2018-05-15T11:51:58.885Z,24.05
2018-05-15T11:52:58.741Z,23.88
2018-05-15T11:53:57.952Z,23.83
2018-05-15T11:54:57.826Z,23.86
2018-05-15T11:55:57.873Z,23.86
2018-05-15T11:56:57.775Z,23.88
2018-05-15T11:57:57.808Z,23.83
2018-05-15T11:58:57.737Z,23.91
2018-05-15T11:59:57.817Z,23.84
2018-05-15T12:00:57.692Z,23.87
2018-05-15T12:01:57.675Z,23.87
2018-05-15T12:02:57.653Z,23.84
2018-05-15T12:03:57.718Z,23.87
2018-05-15T12:04:57.608Z,23.86
2018-05-15T12:05:57.579Z,23.87
2018-05-15T12:06:57.556Z,23.87
2018-05-15T12:07:57.597Z,23.91
2018-05-15T12:08:57.576Z,23.96
2018-05-15T12:09:57.499Z,23.88
2018-05-15T12:10:57.525Z,23.93
2018-05-15T12:11:57.445Z,23.95
2018-05-15T12:12:57.501Z,23.91
2018-05-15T12:13:57.401Z,23.88
2018-05-15T12:14:57.452Z,23.98
2018-05-15T12:15:57.375Z,24.02
2018-05-15T12:16:57.344Z,23.99
2018-05-15T12:17:57.316Z,23.99
2018-05-15T12:18:57.296Z,23.98
2018-05-15T12:19:57.272Z,23.95
2018-05-15T12:20:57.333Z,23.95
2018-05-15T12:21:57.236Z,24.01
2018-05-15T12:22:57.204Z,24.02
2018-05-15T12:23:57.187Z,23.92
2018-05-15T12:24:57.160Z,23.98
2018-05-15T12:25:57.141Z,23.95
2018-05-15T12:26:57.115Z,23.96
2018-05-15T12:27:57.103Z,23.99
2018-05-15T12:28:57.069Z,24.08
2018-05-15T12:29:57.112Z,24.11
2018-05-15T12:30:57.029Z,24.08
2018-05-15T12:31:57.004Z,24.14
2018-05-15T12:32:56.985Z,24.18
2018-05-15T12:33:56.971Z,24.13
2018-05-15T12:34:56.945Z,24.06
2018-05-15T12:35:56.961Z,24.01
2018-05-15T12:36:56.899Z,23.96
2018-05-15T12:37:56.874Z,23.88
2018-05-15T12:38:56.848Z,23.93
2018-05-15T12:39:56.835Z,24.02
2018-05-15T12:40:56.809Z,24.16
2018-05-15T12:41:56.978Z,24.17
2018-05-15T12:42:56.762Z,24.18
2018-05-15T12:43:56.741Z,24.32
2018-05-15T12:44:56.722Z,24.28
2018-05-15T12:45:56.693Z,24.40
2018-05-15T12:46:56.678Z,24.38
2018-05-15T12:47:56.669Z,24.45
2018-05-15T12:48:56.635Z,24.45
2018-05-15T12:49:56.608Z,24.45
2018-05-15T12:50:56.587Z,24.45
2018-05-15T12:51:56.562Z,24.47